createdAt,value
2018-03-22T00:00:43.119Z,86.41
2018-03-22T00:01:43.032Z,87.07
2018-03-22T00:02:42.957Z,87.26
2018-03-22T00:03:42.870Z,86.69
2018-03-22T00:04:42.785Z,86.98
2018-03-22T00:05:42.708Z,86.98
2018-03-22T00:06:42.624Z,87.07
2018-03-22T00:07:42.533Z,87.54
2018-03-22T00:08:42.458Z,87.07
2018-03-22T00:09:42.371Z,87.07
2018-03-22T00:10:42.284Z,86.98
2018-03-22T00:11:42.207Z,86.88
2018-03-22T00:12:42.120Z,87.16
2018-03-22T00:13:42.045Z,87.35
2018-03-22T00:14:41.959Z,87.45
2018-03-22T00:15:41.872Z,86.79
2018-03-22T00:16:41.796Z,87.07
2018-03-22T00:17:41.710Z,87.26
2018-03-22T00:18:41.622Z,87.16
2018-03-22T00:19:41.546Z,87.64
2018-03-22T00:20:41.461Z,87.73
2018-03-22T00:21:41.373Z,87.73
2018-03-22T00:22:41.297Z,87.88
2018-03-22T00:23:41.209Z,87.54
2018-03-22T00:24:41.124Z,87.83
2018-03-22T00:25:41.047Z,87.40
2018-03-22T00:26:40.960Z,87.59
2018-03-22T00:27:40.885Z,87.88
2018-03-22T00:28:40.798Z,88.07
2018-03-22T00:29:40.710Z,87.98
2018-03-22T00:30:40.634Z,87.88
2018-03-22T00:31:40.548Z,87.98
2018-03-22T00:32:40.461Z,88.17
2018-03-22T00:33:40.389Z,88.26
2018-03-22T00:34:40.299Z,88.26
2018-03-22T00:35:40.209Z,88.17
2018-03-22T00:36:40.134Z,88.17
2018-03-22T00:37:40.046Z,88.26
2018-03-22T00:38:39.971Z,88.17
2018-03-22T00:39:39.885Z,88.26
2018-03-22T00:40:39.795Z,88.17
2018-03-22T00:41:39.721Z,88.35
2018-03-22T00:42:39.635Z,88.26
2018-03-22T00:43:39.546Z,88.73
2018-03-22T00:44:39.472Z,88.45
2018-03-22T00:45:39.385Z,88.64
2018-03-22T00:46:39.297Z,88.73
2018-03-22T00:47:39.235Z,88.64
2018-03-22T00:48:39.138Z,88.73
2018-03-22T00:49:39.047Z,88.82
2018-03-22T00:50:38.972Z,88.17
2018-03-22T00:51:38.885Z,88.07
2018-03-22T00:52:38.797Z,88.64
2018-03-22T00:53:38.736Z,88.54
2018-03-22T00:54:38.638Z,88.17
2018-03-22T00:55:38.547Z,88.54
2018-03-22T00:56:38.474Z,88.64
2018-03-22T00:57:38.385Z,88.45
2018-03-22T00:58:38.299Z,88.64
2018-03-22T00:59:38.240Z,88.45
2018-03-22T01:00:38.136Z,88.35
2018-03-22T01:01:38.049Z,88.17
2018-03-22T01:02:37.974Z,88.26
2018-03-22T01:03:37.887Z,88.26
2018-03-22T01:04:37.800Z,88.35
2018-03-22T01:05:37.739Z,88.07
2018-03-22T01:06:37.637Z,88.54
2018-03-22T01:07:37.550Z,89.58
2018-03-22T01:08:37.474Z,89.39
2018-03-22T01:09:37.387Z,89.96
2018-03-22T01:10:37.311Z,89.01
2018-03-22T01:11:37.226Z,90.06
2018-03-22T01:12:37.137Z,90.06
2018-03-22T01:13:37.062Z,90.06
2018-03-22T01:14:36.974Z,89.63
2018-03-22T01:15:36.891Z,89.35
2018-03-22T01:16:36.811Z,90.30
2018-03-22T01:17:36.725Z,90.01
2018-03-22T01:18:36.638Z,90.01
2018-03-22T01:19:36.551Z,90.25
2018-03-22T01:20:36.475Z,90.06
2018-03-22T01:21:36.389Z,90.20
2018-03-22T01:22:36.313Z,90.30
2018-03-22T01:23:36.226Z,90.01
2018-03-22T01:24:36.139Z,90.20
2018-03-22T01:25:36.063Z,90.39
2018-03-22T01:26:35.976Z,90.30
2018-03-22T01:27:35.890Z,89.92
2018-03-22T01:28:35.815Z,90.20
2018-03-22T01:29:35.727Z,90.11
2018-03-22T01:30:35.640Z,90.01
2018-03-22T01:31:35.552Z,90.11
2018-03-22T01:32:35.477Z,90.30
2018-03-22T01:33:35.390Z,90.01
2018-03-22T01:34:35.303Z,90.20
2018-03-22T01:35:35.227Z,90.11
2018-03-22T01:36:35.140Z,90.01
2018-03-22T01:37:35.053Z,90.20
2018-03-22T01:38:34.981Z,89.73
2018-03-22T01:39:34.891Z,89.63
2018-03-22T01:40:34.803Z,89.92
2018-03-22T01:41:34.727Z,89.92
2018-03-22T01:42:34.641Z,90.01
2018-03-22T01:43:34.553Z,90.20
2018-03-22T01:44:34.490Z,89.63
2018-03-22T01:45:34.391Z,89.92
2018-03-22T01:46:34.304Z,89.73
2018-03-22T01:47:34.237Z,90.39
2018-03-22T01:48:34.142Z,90.39
2018-03-22T01:49:34.053Z,90.30
2018-03-22T01:50:33.992Z,90.01
2018-03-22T01:51:33.892Z,90.30
2018-03-22T01:52:33.803Z,90.39
2018-03-22T01:53:33.727Z,90.30
2018-03-22T01:54:33.642Z,90.11
2018-03-22T01:55:33.553Z,90.01
2018-03-22T01:56:33.480Z,89.73
2018-03-22T01:57:33.392Z,89.82
2018-03-22T01:58:33.306Z,89.54
2018-03-22T01:59:33.217Z,89.35
2018-03-22T02:00:33.142Z,89.54
2018-03-22T02:01:33.056Z,89.82
2018-03-22T02:02:32.968Z,89.54
2018-03-22T02:03:32.892Z,89.54
2018-03-22T02:04:32.804Z,89.39
2018-03-22T02:05:32.718Z,89.16
2018-03-22T02:06:32.643Z,89.35
2018-03-22T02:07:32.554Z,88.87
2018-03-22T02:08:32.468Z,89.73
2018-03-22T02:09:32.393Z,88.97
2018-03-22T02:10:32.305Z,88.87
2018-03-22T02:11:32.271Z,89.54
2018-03-22T02:12:32.146Z,88.78
2018-03-22T02:13:32.057Z,89.06
2018-03-22T02:14:31.968Z,88.78
2018-03-22T02:15:31.881Z,88.92
2018-03-22T02:16:31.805Z,88.68
2018-03-22T02:17:31.719Z,89.35
2018-03-22T02:18:31.632Z,88.87
2018-03-22T02:19:31.557Z,89.54
2018-03-22T02:20:31.470Z,88.87
2018-03-22T02:21:31.382Z,89.06
2018-03-22T02:22:31.307Z,89.16
2018-03-22T02:23:31.219Z,88.87
2018-03-22T02:24:31.134Z,88.87
2018-03-22T02:25:31.057Z,89.54
2018-03-22T02:26:30.970Z,88.87
2018-03-22T02:27:30.882Z,89.16
2018-03-22T02:28:30.820Z,89.06
2018-03-22T02:29:30.971Z,89.06
2018-03-22T02:30:30.633Z,89.06
2018-03-22T02:31:30.545Z,89.44
2018-03-22T02:32:30.474Z,89.16
2018-03-22T02:33:30.382Z,88.87
2018-03-22T02:34:30.300Z,88.97
2018-03-22T02:35:30.221Z,88.78
2018-03-22T02:36:30.132Z,88.78
2018-03-22T02:37:30.048Z,88.78
2018-03-22T02:38:29.972Z,89.06
2018-03-22T02:39:30.184Z,88.97
2018-03-22T02:40:29.798Z,89.35
2018-03-22T02:41:29.710Z,89.44
2018-03-22T02:42:29.633Z,88.97
2018-03-22T02:43:29.548Z,88.49
2018-03-22T02:44:29.471Z,89.25
2018-03-22T02:45:29.397Z,89.44
2018-03-22T02:46:29.299Z,88.87
2018-03-22T02:47:29.210Z,88.59
2018-03-22T02:48:29.137Z,88.97
2018-03-22T02:49:29.047Z,88.87
2018-03-22T02:50:28.972Z,89.35
2018-03-22T02:51:28.874Z,88.78
2018-03-22T02:52:28.804Z,88.87
2018-03-22T02:53:28.710Z,89.25
2018-03-22T02:54:28.624Z,88.49
2018-03-22T02:55:28.549Z,88.97
2018-03-22T02:56:28.474Z,89.35
2018-03-22T02:57:28.373Z,88.87
2018-03-22T02:58:28.303Z,88.87
2018-03-22T02:59:28.225Z,89.44
2018-03-22T03:00:28.126Z,88.78
2018-03-22T03:01:28.038Z,89.16
2018-03-22T03:02:27.974Z,89.54
2018-03-22T03:03:27.876Z,89.06
2018-03-22T03:04:27.787Z,89.44
2018-03-22T03:05:27.713Z,89.35
2018-03-22T03:06:27.624Z,88.78
2018-03-22T03:07:27.536Z,89.35
2018-03-22T03:08:27.463Z,88.78
2018-03-22T03:09:27.374Z,89.35
2018-03-22T03:10:27.286Z,89.44
2018-03-22T03:11:27.212Z,88.97
2018-03-22T03:12:27.124Z,88.78
2018-03-22T03:13:27.037Z,89.44
2018-03-22T03:14:26.950Z,88.68
2018-03-22T03:15:26.875Z,89.06
2018-03-22T03:16:26.787Z,88.97
2018-03-22T03:17:26.700Z,89.35
2018-03-22T03:18:26.625Z,88.97
2018-03-22T03:19:26.787Z,88.87
2018-03-22T03:20:26.450Z,88.87
2018-03-22T03:21:26.376Z,89.16
2018-03-22T03:22:26.287Z,89.35
2018-03-22T03:23:26.206Z,89.44
2018-03-22T03:24:26.115Z,89.16
2018-03-22T03:25:26.037Z,89.16
2018-03-22T03:26:25.954Z,89.25
2018-03-22T03:27:25.862Z,88.87
2018-03-22T03:28:25.788Z,89.35
2018-03-22T03:29:25.718Z,89.16
2018-03-22T03:30:25.676Z,89.44
2018-03-22T03:31:25.527Z,89.35
2018-03-22T03:32:25.452Z,89.16
2018-03-22T03:33:25.364Z,89.35
2018-03-22T03:34:25.288Z,88.59
2018-03-22T03:35:25.202Z,88.68
2018-03-22T03:36:25.126Z,89.35
2018-03-22T03:37:25.027Z,88.87
2018-03-22T03:38:24.952Z,88.49
2018-03-22T03:39:25.126Z,88.59
2018-03-22T03:40:24.778Z,88.78
2018-03-22T03:41:24.712Z,88.78
2018-03-22T03:42:24.614Z,88.87
2018-03-22T03:43:24.528Z,89.16
2018-03-22T03:44:24.440Z,88.97
2018-03-22T03:45:24.365Z,88.40
2018-03-22T03:46:24.278Z,89.25
2018-03-22T03:47:24.189Z,88.59
2018-03-22T03:48:24.110Z,88.49
2018-03-22T03:49:24.033Z,88.87
2018-03-22T03:50:23.940Z,88.68
2018-03-22T03:51:23.854Z,88.78
2018-03-22T03:52:23.779Z,88.87
2018-03-22T03:53:23.690Z,88.97
2018-03-22T03:54:23.603Z,88.68
2018-03-22T03:55:23.517Z,89.06
2018-03-22T03:56:23.441Z,88.78
2018-03-22T03:57:23.354Z,88.78
2018-03-22T03:58:23.267Z,88.59
2018-03-22T03:59:23.205Z,88.59
2018-03-22T04:00:23.110Z,88.68
2018-03-22T04:01:23.022Z,88.59
2018-03-22T04:02:22.942Z,89.16
2018-03-22T04:03:22.854Z,89.06
2018-03-22T04:04:22.767Z,88.68
2018-03-22T04:05:22.680Z,88.78
2018-03-22T04:06:22.605Z,88.97
2018-03-22T04:07:22.517Z,88.59
2018-03-22T04:08:22.431Z,88.68
2018-03-22T04:09:22.356Z,88.87
2018-03-22T04:10:22.267Z,88.87
2018-03-22T04:11:22.180Z,88.87
2018-03-22T04:12:22.095Z,88.68
2018-03-22T04:13:22.017Z,88.49
2018-03-22T04:14:21.931Z,88.40
2018-03-22T04:15:21.843Z,88.68
2018-03-22T04:16:21.768Z,88.68
2018-03-22T04:17:21.681Z,88.40
2018-03-22T04:18:21.606Z,88.59
2018-03-22T04:19:21.518Z,88.21
2018-03-22T04:20:21.432Z,88.49
2018-03-22T04:21:21.343Z,88.59
2018-03-22T04:22:21.268Z,88.49
2018-03-22T04:23:21.182Z,88.59
2018-03-22T04:24:21.095Z,88.40
2018-03-22T04:25:21.007Z,88.31
2018-03-22T04:26:20.932Z,88.12
2018-03-22T04:27:20.844Z,88.21
2018-03-22T04:28:20.757Z,88.02
2018-03-22T04:29:20.670Z,88.02
2018-03-22T04:30:20.593Z,87.55
2018-03-22T04:31:20.508Z,87.84
2018-03-22T04:32:20.420Z,87.93
2018-03-22T04:33:20.346Z,88.02
2018-03-22T04:34:20.258Z,88.21
2018-03-22T04:35:20.171Z,87.84
2018-03-22T04:36:20.086Z,88.12
2018-03-22T04:37:20.008Z,88.31
2018-03-22T04:38:19.921Z,88.02
2018-03-22T04:39:19.836Z,88.02
2018-03-22T04:40:19.747Z,87.93
2018-03-22T04:41:19.670Z,87.93
2018-03-22T04:42:19.586Z,87.93
2018-03-22T04:43:19.495Z,87.74
2018-03-22T04:44:19.421Z,87.84
2018-03-22T04:45:19.333Z,87.93
2018-03-22T04:46:19.258Z,88.21
2018-03-22T04:47:19.171Z,88.02
2018-03-22T04:48:19.091Z,88.02
2018-03-22T04:49:18.996Z,87.93
2018-03-22T04:50:18.910Z,87.74
2018-03-22T04:51:18.835Z,87.93
2018-03-22T04:52:18.760Z,88.12
2018-03-22T04:53:18.659Z,88.02
2018-03-22T04:54:18.588Z,87.74
2018-03-22T04:55:18.499Z,87.84
2018-03-22T04:56:18.409Z,87.93
2018-03-22T04:57:18.323Z,87.74
2018-03-22T04:58:18.260Z,87.93
2018-03-22T04:59:18.200Z,87.84
2018-03-22T05:00:18.072Z,87.84
2018-03-22T05:01:18.000Z,88.02
2018-03-22T05:02:17.911Z,87.65
2018-03-22T05:03:17.823Z,87.84
2018-03-22T05:04:17.748Z,88.02
2018-03-22T05:05:17.661Z,87.93
2018-03-22T05:06:17.572Z,88.02
2018-03-22T05:07:17.486Z,87.93
2018-03-22T05:08:17.411Z,88.12
2018-03-22T05:09:17.323Z,87.93
2018-03-22T05:10:17.247Z,87.55
2018-03-22T05:11:17.161Z,87.17
2018-03-22T05:12:17.086Z,87.65
2018-03-22T05:13:16.986Z,87.55
2018-03-22T05:14:16.900Z,88.02
2018-03-22T05:15:16.823Z,87.55
2018-03-22T05:16:16.739Z,87.84
2018-03-22T05:17:16.649Z,87.17
2018-03-22T05:18:16.573Z,87.65
2018-03-22T05:19:16.487Z,87.84
2018-03-22T05:20:16.399Z,87.84
2018-03-22T05:21:16.324Z,87.46
2018-03-22T05:22:16.238Z,87.27
2018-03-22T05:23:16.149Z,87.93
2018-03-22T05:24:16.063Z,87.65
2018-03-22T05:25:15.987Z,87.55
2018-03-22T05:26:15.899Z,87.84
2018-03-22T05:27:15.838Z,87.46
2018-03-22T05:28:15.739Z,87.17
2018-03-22T05:29:15.649Z,87.84
2018-03-22T05:30:15.563Z,87.21
2018-03-22T05:31:15.489Z,87.02
2018-03-22T05:32:15.400Z,87.31
2018-03-22T05:33:15.313Z,87.17
2018-03-22T05:34:15.238Z,87.36
2018-03-22T05:35:15.150Z,86.98
2018-03-22T05:36:15.063Z,87.27
2018-03-22T05:37:14.977Z,87.17
2018-03-22T05:38:14.900Z,87.17
2018-03-22T05:39:14.814Z,87.31
2018-03-22T05:40:14.726Z,87.40
2018-03-22T05:41:14.650Z,87.46
2018-03-22T05:42:14.565Z,87.31
2018-03-22T05:43:14.477Z,87.31
2018-03-22T05:44:14.401Z,87.36
2018-03-22T05:45:14.314Z,87.55
2018-03-22T05:46:14.226Z,87.55
2018-03-22T05:47:14.152Z,87.65
2018-03-22T05:48:14.066Z,87.84
2018-03-22T05:49:13.977Z,87.21
2018-03-22T05:50:13.901Z,87.88
2018-03-22T05:51:13.818Z,87.40
2018-03-22T05:52:13.728Z,88.07
2018-03-22T05:53:13.640Z,87.88
2018-03-22T05:54:13.576Z,87.78
2018-03-22T05:55:13.478Z,87.59
2018-03-22T05:56:13.391Z,87.69
2018-03-22T05:57:13.315Z,87.88
2018-03-22T05:58:13.241Z,88.17
2018-03-22T05:59:13.143Z,87.78
2018-03-22T06:00:13.055Z,87.84
2018-03-22T06:01:12.991Z,87.88
2018-03-22T06:02:12.892Z,87.84
2018-03-22T06:03:12.807Z,88.12
2018-03-22T06:04:12.730Z,87.84
2018-03-22T06:05:12.642Z,87.88
2018-03-22T06:06:12.554Z,88.02
2018-03-22T06:07:12.489Z,87.98
2018-03-22T06:08:12.393Z,87.74
2018-03-22T06:09:12.304Z,87.84
2018-03-22T06:10:12.229Z,88.12
2018-03-22T06:11:12.142Z,87.65
2018-03-22T06:12:12.054Z,87.02
2018-03-22T06:13:11.979Z,87.88
2018-03-22T06:14:11.892Z,87.59
2018-03-22T06:15:11.804Z,87.40
2018-03-22T06:16:11.718Z,87.21
2018-03-22T06:17:11.642Z,87.02
2018-03-22T06:18:11.555Z,87.02
2018-03-22T06:19:11.468Z,87.02
2018-03-22T06:20:11.394Z,86.93
2018-03-22T06:21:11.305Z,86.74
2018-03-22T06:22:11.219Z,86.55
2018-03-22T06:23:11.148Z,87.02
2018-03-22T06:24:11.068Z,86.83
2018-03-22T06:25:10.969Z,86.83
2018-03-22T06:26:10.893Z,86.55
2018-03-22T06:27:10.806Z,86.65
2018-03-22T06:28:10.732Z,86.65
2018-03-22T06:29:10.643Z,86.65
2018-03-22T06:30:10.556Z,86.18
2018-03-22T06:31:10.471Z,86.08
2018-03-22T06:32:10.385Z,86.93
2018-03-22T06:33:10.306Z,86.83
2018-03-22T06:34:10.225Z,86.74
2018-03-22T06:35:10.132Z,86.93
2018-03-22T06:36:10.056Z,86.65
2018-03-22T06:37:09.970Z,87.21
2018-03-22T06:38:09.883Z,87.12
2018-03-22T06:39:09.820Z,87.02
2018-03-22T06:40:09.727Z,87.02
2018-03-22T06:41:09.632Z,86.93
2018-03-22T06:42:09.556Z,86.55
2018-03-22T06:43:09.471Z,86.74
2018-03-22T06:44:09.382Z,86.74
2018-03-22T06:45:09.320Z,87.02
2018-03-22T06:46:09.222Z,87.69
2018-03-22T06:47:09.133Z,87.78
2018-03-22T06:48:09.059Z,87.59
2018-03-22T06:49:08.970Z,89.39
2018-03-22T06:50:08.884Z,88.49
2018-03-22T06:51:08.810Z,89.06
2018-03-22T06:52:08.724Z,91.72
2018-03-22T06:53:08.632Z,90.20
2018-03-22T06:54:08.559Z,90.11
2018-03-22T06:55:08.472Z,90.86
2018-03-22T06:56:08.383Z,90.39
2018-03-22T06:57:08.312Z,90.67
2018-03-22T06:58:08.227Z,91.24
2018-03-22T06:59:08.136Z,91.91
2018-03-22T07:00:08.058Z,90.30
2018-03-22T07:01:07.971Z,91.15
2018-03-22T07:02:07.884Z,90.67
2018-03-22T07:03:07.798Z,90.86
2018-03-22T07:04:07.722Z,90.86
2018-03-22T07:05:07.635Z,91.91
2018-03-22T07:06:07.550Z,91.62
2018-03-22T07:07:07.474Z,91.81
2018-03-22T07:08:07.384Z,90.67
2018-03-22T07:09:07.303Z,90.86
2018-03-22T07:10:07.223Z,92.24
2018-03-22T07:11:07.134Z,92.10
2018-03-22T07:12:07.054Z,91.34
2018-03-22T07:13:06.961Z,91.39
2018-03-22T07:14:06.884Z,90.82
2018-03-22T07:15:06.803Z,90.53
2018-03-22T07:16:06.724Z,91.10
2018-03-22T07:17:06.624Z,91.67
2018-03-22T07:18:06.553Z,91.20
2018-03-22T07:19:06.461Z,91.29
2018-03-22T07:20:06.374Z,91.58
2018-03-22T07:21:06.287Z,91.20
2018-03-22T07:22:06.224Z,91.67
2018-03-22T07:23:06.124Z,91.48
2018-03-22T07:24:06.036Z,92.14
2018-03-22T07:25:05.961Z,91.86
2018-03-22T07:26:05.878Z,91.58
2018-03-22T07:27:05.786Z,91.67
2018-03-22T07:28:05.704Z,91.48
2018-03-22T07:29:05.624Z,92.43
2018-03-22T07:30:05.542Z,92.05
2018-03-22T07:31:05.451Z,92.33
2018-03-22T07:32:05.362Z,92.14
2018-03-22T07:33:05.287Z,91.86
2018-03-22T07:34:05.200Z,91.96
2018-03-22T07:35:05.112Z,91.86
2018-03-22T07:36:05.025Z,91.67
2018-03-22T07:37:04.939Z,91.86
2018-03-22T07:38:04.873Z,92.24
2018-03-22T07:39:04.776Z,92.14
2018-03-22T07:40:04.688Z,92.33
2018-03-22T07:41:04.601Z,91.48
2018-03-22T07:42:04.527Z,91.77
2018-03-22T07:43:04.438Z,91.48
2018-03-22T07:44:04.352Z,91.48
2018-03-22T07:45:04.267Z,91.58
2018-03-22T07:46:04.189Z,91.58
2018-03-22T07:47:04.107Z,91.58
2018-03-22T07:48:04.014Z,91.67
2018-03-22T07:49:03.929Z,91.58
2018-03-22T07:50:03.839Z,91.01
2018-03-22T07:51:03.764Z,91.10
2018-03-22T07:52:03.680Z,91.29
2018-03-22T07:53:03.589Z,90.44
2018-03-22T07:54:03.502Z,90.63
2018-03-22T07:55:03.433Z,90.63
2018-03-22T07:56:03.339Z,90.44
2018-03-22T07:57:03.254Z,91.39
2018-03-22T07:58:03.165Z,91.01
2018-03-22T07:59:03.091Z,90.63
2018-03-22T08:00:03.012Z,91.20
2018-03-22T08:01:02.928Z,90.63
2018-03-22T08:02:02.829Z,90.63
2018-03-22T08:03:02.740Z,90.72
2018-03-22T08:04:02.664Z,90.82
2018-03-22T08:05:02.578Z,90.63
2018-03-22T08:06:02.491Z,91.20
2018-03-22T08:07:02.404Z,90.72
2018-03-22T08:08:02.329Z,90.91
2018-03-22T08:09:02.240Z,90.82
2018-03-22T08:10:02.154Z,90.63
2018-03-22T08:11:02.066Z,91.48
2018-03-22T08:12:01.991Z,90.44
2018-03-22T08:13:01.905Z,90.82
2018-03-22T08:14:01.817Z,91.20
2018-03-22T08:15:01.731Z,91.48
2018-03-22T08:16:01.655Z,91.01
2018-03-22T08:17:01.567Z,90.91
2018-03-22T08:18:01.480Z,91.67
2018-03-22T08:19:01.392Z,90.72
2018-03-22T08:20:01.317Z,91.58
2018-03-22T08:21:01.243Z,91.20
2018-03-22T08:22:01.142Z,91.48
2018-03-22T08:23:01.056Z,91.10
2018-03-22T08:24:00.969Z,91.58
2018-03-22T08:25:00.892Z,90.91
2018-03-22T08:26:00.811Z,90.82
2018-03-22T08:27:00.730Z,90.91
2018-03-22T08:28:00.631Z,90.82
2018-03-22T08:29:00.563Z,91.29
2018-03-22T08:30:00.468Z,90.63
2018-03-22T08:31:00.387Z,91.20
2018-03-22T08:32:00.293Z,91.20
2018-03-22T08:33:00.218Z,90.82
2018-03-22T08:34:00.132Z,90.82
2018-03-22T08:35:00.113Z,91.20
2018-03-22T08:35:59.957Z,91.58
2018-03-22T08:36:59.882Z,91.39
2018-03-22T08:37:59.794Z,91.48
2018-03-22T08:38:59.718Z,91.29
2018-03-22T08:39:59.620Z,91.48
2018-03-22T08:40:59.544Z,91.96
2018-03-22T08:41:59.463Z,91.58
2018-03-22T08:42:59.369Z,91.58
2018-03-22T08:43:59.282Z,91.67
2018-03-22T08:44:59.209Z,91.67
2018-03-22T08:45:59.119Z,91.86
2018-03-22T08:46:59.039Z,91.96
2018-03-22T08:47:58.944Z,92.33
2018-03-22T08:48:58.858Z,92.05
2018-03-22T08:49:58.783Z,92.33
2018-03-22T08:50:58.711Z,92.43
2018-03-22T08:51:58.608Z,92.33
2018-03-22T08:52:58.521Z,92.33
2018-03-22T08:53:58.446Z,92.71
2018-03-22T08:54:58.360Z,92.71
2018-03-22T08:55:58.270Z,92.61
2018-03-22T08:56:58.184Z,92.61
2018-03-22T08:57:58.109Z,92.43
2018-03-22T08:58:58.021Z,92.99
2018-03-22T08:59:57.938Z,93.09
2018-03-22T09:00:57.846Z,92.80
2018-03-22T09:01:57.760Z,92.99
2018-03-22T09:02:57.685Z,92.80
2018-03-22T09:03:57.596Z,92.80
2018-03-22T09:04:57.510Z,92.71
2018-03-22T09:05:57.421Z,92.61
2018-03-22T09:06:57.353Z,93.37
2018-03-22T09:07:57.260Z,93.37
2018-03-22T09:08:57.176Z,93.09
2018-03-22T09:09:57.085Z,93.28
2018-03-22T09:10:56.998Z,93.18
2018-03-22T09:11:56.946Z,93.37
2018-03-22T09:12:56.837Z,93.18
2018-03-22T09:13:56.748Z,93.09
2018-03-22T09:14:56.690Z,93.28
2018-03-22T09:15:56.586Z,93.18
2018-03-22T09:16:56.510Z,92.99
2018-03-22T09:17:56.411Z,93.18
2018-03-22T09:18:56.323Z,92.80
2018-03-22T09:19:56.247Z,92.90
2018-03-22T09:20:56.161Z,93.09
2018-03-22T09:21:56.073Z,92.90
2018-03-22T09:22:55.986Z,92.71
2018-03-22T09:23:55.911Z,93.47
2018-03-22T09:24:55.825Z,93.18
2018-03-22T09:25:55.742Z,92.99
2018-03-22T09:26:55.649Z,93.18
2018-03-22T09:27:55.608Z,93.18
2018-03-22T09:28:55.489Z,93.09
2018-03-22T09:29:55.400Z,92.99
2018-03-22T09:30:55.313Z,93.18
2018-03-22T09:31:55.224Z,93.28
2018-03-22T09:32:55.141Z,92.90
2018-03-22T09:33:55.063Z,93.66
2018-03-22T09:34:55.023Z,93.66
2018-03-22T09:35:54.888Z,93.56
2018-03-22T09:36:54.800Z,93.75
2018-03-22T09:37:54.742Z,93.85
2018-03-22T09:38:54.638Z,93.75
2018-03-22T09:39:54.558Z,93.56
2018-03-22T09:40:54.463Z,93.94
2018-03-22T09:41:54.383Z,93.85
2018-03-22T09:42:54.300Z,93.85
2018-03-22T09:43:54.213Z,94.32
2018-03-22T09:44:54.138Z,94.42
2018-03-22T09:45:54.039Z,94.32
2018-03-22T09:46:53.954Z,94.32
2018-03-22T09:47:53.876Z,94.32
2018-03-22T09:48:53.790Z,94.23
2018-03-22T09:49:53.702Z,94.42
2018-03-22T09:50:53.614Z,93.94
2018-03-22T09:51:53.540Z,94.23
2018-03-22T09:52:53.451Z,94.23
2018-03-22T09:53:53.365Z,94.13
2018-03-22T09:54:53.276Z,93.66
2018-03-22T09:55:53.190Z,93.94
2018-03-22T09:56:53.115Z,93.56
2018-03-22T09:57:53.027Z,93.94
2018-03-22T09:58:52.940Z,93.75
2018-03-22T09:59:52.857Z,93.85
2018-03-22T10:00:52.767Z,93.66
2018-03-22T10:01:52.692Z,93.56
2018-03-22T10:02:52.611Z,93.66
2018-03-22T10:03:52.516Z,93.66
2018-03-22T10:04:52.428Z,93.75
2018-03-22T10:05:52.342Z,93.94
2018-03-22T10:06:52.267Z,93.56
2018-03-22T10:07:52.178Z,93.75
2018-03-22T10:08:52.091Z,93.56
2018-03-22T10:09:52.003Z,93.18
2018-03-22T10:10:51.927Z,93.09
2018-03-22T10:11:51.842Z,92.90
2018-03-22T10:12:51.754Z,92.99
2018-03-22T10:13:51.667Z,92.90
2018-03-22T10:14:51.578Z,92.52
2018-03-22T10:15:51.511Z,92.71
2018-03-22T10:16:51.417Z,92.52
2018-03-22T10:17:51.328Z,92.33
2018-03-22T10:18:51.243Z,92.33
2018-03-22T10:19:51.156Z,92.33
2018-03-22T10:20:51.079Z,92.24
2018-03-22T10:21:50.993Z,92.43
2018-03-22T10:22:50.905Z,92.05
2018-03-22T10:23:50.820Z,92.24
2018-03-22T10:24:50.743Z,91.58
2018-03-22T10:25:50.654Z,91.81
2018-03-22T10:26:50.569Z,92.10
2018-03-22T10:27:50.480Z,91.77
2018-03-22T10:28:50.405Z,92.05
2018-03-22T10:29:50.318Z,91.81
2018-03-22T10:30:50.243Z,91.58
2018-03-22T10:31:50.143Z,91.81
2018-03-22T10:32:50.057Z,91.72
2018-03-22T10:33:49.981Z,91.81
2018-03-22T10:34:49.905Z,91.91
2018-03-22T10:35:49.807Z,91.81
2018-03-22T10:36:49.721Z,91.34
2018-03-22T10:37:49.646Z,91.91
2018-03-22T10:38:49.556Z,91.53
2018-03-22T10:39:49.475Z,91.81
2018-03-22T10:40:49.381Z,91.62
2018-03-22T10:41:49.306Z,92.29
2018-03-22T10:42:49.225Z,91.77
2018-03-22T10:43:49.131Z,91.62
2018-03-22T10:44:49.045Z,91.62
2018-03-22T10:45:48.970Z,91.62
2018-03-22T10:46:48.898Z,92.00
2018-03-22T10:47:48.795Z,91.91
2018-03-22T10:48:48.707Z,92.00
2018-03-22T10:49:48.631Z,91.72
2018-03-22T10:50:48.545Z,91.81
2018-03-22T10:51:48.457Z,92.10
2018-03-22T10:52:48.372Z,91.58
2018-03-22T10:53:48.298Z,92.00
2018-03-22T10:54:48.208Z,91.81
2018-03-22T10:55:48.138Z,91.81
2018-03-22T10:56:48.033Z,91.72
2018-03-22T10:57:47.947Z,91.81
2018-03-22T10:58:47.871Z,91.81
2018-03-22T10:59:47.782Z,92.00
2018-03-22T11:00:47.696Z,91.53
2018-03-22T11:01:47.608Z,91.62
2018-03-22T11:02:47.533Z,91.53
2018-03-22T11:03:47.448Z,92.00
2018-03-22T11:04:47.359Z,92.00
2018-03-22T11:05:47.272Z,91.62
2018-03-22T11:06:47.185Z,91.53
2018-03-22T11:07:47.110Z,92.00
2018-03-22T11:08:47.022Z,92.66
2018-03-22T11:09:46.933Z,92.38
2018-03-22T11:10:46.848Z,92.47
2018-03-22T11:11:46.772Z,92.38
2018-03-22T11:12:46.684Z,92.57
2018-03-22T11:13:46.600Z,91.91
2018-03-22T11:14:46.518Z,92.19
2018-03-22T11:15:46.435Z,92.29
2018-03-22T11:16:46.348Z,91.81
2018-03-22T11:17:46.260Z,91.72
2018-03-22T11:18:46.184Z,91.81
2018-03-22T11:19:46.153Z,92.19
2018-03-22T11:20:46.010Z,92.19
2018-03-22T11:21:45.923Z,92.29
2018-03-22T11:22:45.837Z,92.10
2018-03-22T11:23:45.760Z,92.10
2018-03-22T11:24:45.673Z,92.10
2018-03-22T11:25:45.585Z,92.19
2018-03-22T11:26:45.514Z,92.19
2018-03-22T11:27:45.424Z,91.62
2018-03-22T11:28:45.348Z,91.43
2018-03-22T11:29:45.249Z,92.00
2018-03-22T11:30:45.174Z,91.43
2018-03-22T11:31:45.087Z,91.91
2018-03-22T11:32:44.999Z,91.72
2018-03-22T11:33:44.913Z,92.19
2018-03-22T11:34:44.836Z,91.62
2018-03-22T11:35:44.749Z,92.00
2018-03-22T11:36:44.662Z,91.72
2018-03-22T11:37:44.600Z,92.19
2018-03-22T11:38:44.500Z,91.81
2018-03-22T11:39:44.412Z,91.72
2018-03-22T11:40:44.329Z,91.81
2018-03-22T11:41:44.251Z,91.62
2018-03-22T11:42:44.162Z,92.29
2018-03-22T11:43:44.076Z,92.19
2018-03-22T11:44:44.001Z,91.81
2018-03-22T11:45:43.912Z,91.72
2018-03-22T11:46:43.831Z,92.24
2018-03-22T11:47:43.739Z,91.62
2018-03-22T11:48:43.652Z,92.05
2018-03-22T11:49:43.576Z,91.43
2018-03-22T11:50:43.502Z,91.86
2018-03-22T11:51:43.401Z,91.34
2018-03-22T11:52:43.326Z,92.14
2018-03-22T11:53:43.267Z,92.14
2018-03-22T11:54:43.152Z,92.05
2018-03-22T11:55:43.063Z,91.95
2018-03-22T11:56:43.008Z,91.86
2018-03-22T11:57:42.902Z,91.67
2018-03-22T11:58:42.813Z,91.76
2018-03-22T11:59:42.737Z,91.76
2018-03-22T12:00:42.652Z,91.48
2018-03-22T12:01:42.564Z,91.76
2018-03-22T12:02:42.481Z,91.67
2018-03-22T12:03:42.403Z,91.76
2018-03-22T12:04:42.320Z,91.38
2018-03-22T12:05:42.228Z,91.67
2018-03-22T12:06:42.141Z,91.57
2018-03-22T12:07:42.065Z,91.57
2018-03-22T12:08:41.979Z,91.48
2018-03-22T12:09:41.890Z,91.48
2018-03-22T12:10:41.815Z,91.86
2018-03-22T12:11:41.729Z,91.67
2018-03-22T12:12:41.640Z,92.05
2018-03-22T12:13:41.570Z,91.86
2018-03-22T12:14:41.482Z,91.67
2018-03-22T12:15:41.390Z,91.86
2018-03-22T12:16:41.304Z,91.76
2018-03-22T12:17:41.264Z,91.67
2018-03-22T12:18:41.154Z,91.67
2018-03-22T12:19:41.054Z,91.76
2018-03-22T12:20:40.968Z,91.38
2018-03-22T12:21:40.930Z,92.14
2018-03-22T12:22:40.805Z,91.95
2018-03-22T12:23:40.716Z,91.76
2018-03-22T12:24:40.643Z,91.38
2018-03-22T12:25:40.555Z,91.95
2018-03-22T12:26:40.467Z,91.67
2018-03-22T12:27:40.381Z,91.76
2018-03-22T12:28:40.308Z,91.67
2018-03-22T12:29:40.217Z,91.67
2018-03-22T12:30:40.135Z,91.67
2018-03-22T12:31:40.057Z,91.67
2018-03-22T12:32:39.967Z,92.05
2018-03-22T12:33:39.889Z,91.86
2018-03-22T12:34:39.794Z,91.67
2018-03-22T12:35:39.718Z,91.76
2018-03-22T12:36:39.631Z,91.67
2018-03-22T12:37:39.544Z,91.76
2018-03-22T12:38:39.468Z,91.38
2018-03-22T12:39:39.381Z,91.48
2018-03-22T12:40:39.293Z,91.76
2018-03-22T12:41:39.219Z,91.76
2018-03-22T12:42:39.132Z,91.67
2018-03-22T12:43:39.078Z,91.95
2018-03-22T12:44:38.975Z,91.86
2018-03-22T12:45:38.883Z,91.29
2018-03-22T12:46:38.794Z,91.67
2018-03-22T12:47:38.719Z,91.57
2018-03-22T12:48:38.632Z,91.57
2018-03-22T12:49:38.558Z,91.67
2018-03-22T12:50:38.457Z,91.62
2018-03-22T12:51:38.382Z,91.76